sensor_id;sensor_type;location;lat;lon;timestamp;P1;durP1;ratioP1;P2;durP2;ratioP2
13368;SDS011;6753;52.520;13.450;2022-09-01T00:00:11;166.35;;;127.53;;
13368;SDS011;6753;52.520;13.450;2022-09-01T00:00:30;171.43;;;130.45;;
13368;SDS011;6753;52.520;13.450;2022-09-01T00:00:44;170.95;;;129.65;;
13368;SDS011;6753;52.520;13.450;2022-09-01T00:00:58;167.65;;;126.22;;
13368;SDS011;6753;52.520;13.450;2022-09-01T00:01:12;157.63;;;120.10;;
13368;SDS011;6753;52.520;13.450;2022-09-01T00:01:30;147.60;;;112.53;;
13368;SDS011;6753;52.520;13.450;2022-09-01T00:01:41;143.37;;;109.80;;
13368;SDS011;6753;52.520;13.450;2022-09-01T00:01:56;137.70;;;105.95;;
13368;SDS011;6753;52.520;13.450;2022-09-01T00:02:07;136.10;;;103.55;;
13368;SDS011;6753;52.520;13.450;2022-09-01T00:02:18;138.98;;;105.90;;
13368;SDS011;6753;52.520;13.450;2022-09-01T00:02:30;142.97;;;108.57;;
13368;SDS011;6753;52.520;13.450;2022-09-01T00:02:42;137.98;;;103.90;;
13368;SDS011;6753;52.520;13.450;2022-09-01T00:02:54;137.10;;;101.93;;
13368;SDS011;6753;52.520;13.450;2022-09-01T00:03:05;136.32;;;101.63;;
13368;SDS011;6753;52.520;13.450;2022-09-01T00:03:20;133.18;;;100.78;;
13368;SDS011;6753;52.520;13.450;2022-09-01T00:03:32;127.93;;;97.00;;
13368;SDS011;6753;52.520;13.450;2022-09-01T00:03:44;128.68;;;97.45;;
13368;SDS011;6753;52.520;13.450;2022-09-01T00:03:58;125.55;;;96.57;;
13368;SDS011;6753;52.520;13.450;2022-09-01T00:04:13;122.55;;;94.40;;
13368;SDS011;6753;52.520;13.450;2022-09-01T00:04:29;122.53;;;93.78;;
13368;SDS011;6753;52.520;13.450;2022-09-01T00:04:40;122.63;;;94.13;;
13368;SDS011;6753;52.520;13.450;2022-09-01T00:04:53;125.13;;;96.60;;
13368;SDS011;6753;52.520;13.450;2022-09-01T00:05:07;126.18;;;97.05;;
13368;SDS011;6753;52.520;13.450;2022-09-01T00:05:18;124.40;;;94.93;;
13368;SDS011;6753;52.520;13.450;2022-09-01T00:05:31;124.15;;;94.97;;
13368;SDS011;6753;52.520;13.450;2022-09-01T00:05:45;124.65;;;94.38;;
13368;SDS011;6753;52.520;13.450;2022-09-01T00:05:57;120.85;;;90.72;;
13368;SDS011;6753;52.520;13.450;2022-09-01T00:06:08;119.60;;;90.00;;
13368;SDS011;6753;52.520;13.450;2022-09-01T00:06:21;116.05;;;87.60;;
13368;SDS011;6753;52.520;13.450;2022-09-01T00:06:33;112.05;;;84.75;;
13368;SDS011;6753;52.520;13.450;2022-09-01T00:06:44;108.55;;;82.13;;
13368;SDS011;6753;52.520;13.450;2022-09-01T00:06:56;107.60;;;81.50;;
13368;SDS011;6753;52.520;13.450;2022-09-01T00:07:09;106.65;;;80.72;;
13368;SDS011;6753;52.520;13.450;2022-09-01T00:07:22;108.40;;;81.22;;
13368;SDS011;6753;52.520;13.450;2022-09-01T00:07:34;108.43;;;80.90;;
13368;SDS011;6753;52.520;13.450;2022-09-01T00:07:44;108.72;;;81.75;;
13368;SDS011;6753;52.520;13.450;2022-09-01T00:07:55;108.30;;;82.38;;
13368;SDS011;6753;52.520;13.450;2022-09-01T00:08:06;108.63;;;82.63;;
13368;SDS011;6753;52.520;13.450;2022-09-01T00:08:17;109.37;;;83.23;;
13368;SDS011;6753;52.520;13.450;2022-09-01T00:08:27;110.40;;;84.00;;
13368;SDS011;6753;52.520;13.450;2022-09-01T00:08:38;110.80;;;84.55;;
13368;SDS011;6753;52.520;13.450;2022-09-01T00:08:50;108.18;;;81.53;;
13368;SDS011;6753;52.520;13.450;2022-09-01T00:09:03;104.75;;;78.38;;
13368;SDS011;6753;52.520;13.450;2022-09-01T00:09:16;98.70;;;74.15;;
13368;SDS011;6753;52.520;13.450;2022-09-01T00:09:28;98.13;;;72.63;;
13368;SDS011;6753;52.520;13.450;2022-09-01T00:09:39;95.40;;;70.23;;
13368;SDS011;6753;52.520;13.450;2022-09-01T00:09:50;93.43;;;69.53;;
13368;SDS011;6753;52.520;13.450;2022-09-01T00:10:04;92.45;;;68.35;;
13368;SDS011;6753;52.520;13.450;2022-09-01T00:10:17;89.18;;;65.82;;
13368;SDS011;6753;52.520;13.450;2022-09-01T00:10:28;86.40;;;65.07;;
13368;SDS011;6753;52.520;13.450;2022-09-01T00:10:39;87.50;;;66.25;;
13368;SDS011;6753;52.520;13.450;2022-09-01T00:10:51;89.85;;;67.65;;
13368;SDS011;6753;52.520;13.450;2022-09-01T00:11:02;90.93;;;68.47;;
13368;SDS011;6753;52.520;13.450;2022-09-01T00:11:13;91.97;;;68.90;;
13368;SDS011;6753;52.520;13.450;2022-09-01T00:11:24;91.00;;;67.80;;
13368;SDS011;6753;52.520;13.450;2022-09-01T00:11:38;84.05;;;62.50;;
13368;SDS011;6753;52.520;13.450;2022-09-01T00:11:50;82.30;;;60.53;;
13368;SDS011;6753;52.520;13.450;2022-09-01T00:12:03;81.72;;;60.65;;
13368;SDS011;6753;52.520;13.450;2022-09-01T00:12:15;79.88;;;59.75;;
13368;SDS011;6753;52.520;13.450;2022-09-01T00:12:27;80.80;;;60.20;;
13368;SDS011;6753;52.520;13.450;2022-09-01T00:12:38;81.97;;;60.90;;
13368;SDS011;6753;52.520;13.450;2022-09-01T00:12:51;80.25;;;60.10;;
13368;SDS011;6753;52.520;13.450;2022-09-01T00:13:03;78.00;;;57.13;;
13368;SDS011;6753;52.520;13.450;2022-09-01T00:13:16;77.32;;;56.15;;
13368;SDS011;6753;52.520;13.450;2022-09-01T00:13:27;75.40;;;54.75;;
13368;SDS011;6753;52.520;13.450;2022-09-01T00:13:42;78.00;;;56.38;;
13368;SDS011;6753;52.520;13.450;2022-09-01T00:13:53;77.85;;;56.22;;
13368;SDS011;6753;52.520;13.450;2022-09-01T00:14:05;76.78;;;56.20;;
13368;SDS011;6753;52.520;13.450;2022-09-01T00:14:19;75.55;;;55.60;;
13368;SDS011;6753;52.520;13.450;2022-09-01T00:14:35;73.97;;;53.63;;
13368;SDS011;6753;52.520;13.450;2022-09-01T00:14:48;70.35;;;51.80;;
13368;SDS011;6753;52.520;13.450;2022-09-01T00:14:59;67.00;;;50.20;;
13368;SDS011;6753;52.520;13.450;2022-09-01T00:15:10;64.22;;;48.13;;
13368;SDS011;6753;52.520;13.450;2022-09-01T00:15:21;61.63;;;46.55;;
13368;SDS011;6753;52.520;13.450;2022-09-01T00:15:32;59.90;;;46.13;;
13368;SDS011;6753;52.520;13.450;2022-09-01T00:15:45;58.25;;;45.53;;
13368;SDS011;6753;52.520;13.450;2022-09-01T00:15:57;58.88;;;45.42;;
13368;SDS011;6753;52.520;13.450;2022-09-01T00:16:08;62.03;;;47.08;;
13368;SDS011;6753;52.520;13.450;2022-09-01T00:16:23;62.20;;;47.50;;
13368;SDS011;6753;52.520;13.450;2022-09-01T00:16:34;60.42;;;46.53;;
13368;SDS011;6753;52.520;13.450;2022-09-01T00:16:45;59.90;;;45.72;;
13368;SDS011;6753;52.520;13.450;2022-09-01T00:16:56;60.42;;;46.38;;
13368;SDS011;6753;52.520;13.450;2022-09-01T00:17:08;58.55;;;45.78;;
13368;SDS011;6753;52.520;13.450;2022-09-01T00:17:21;58.30;;;45.63;;
13368;SDS011;6753;52.520;13.450;2022-09-01T00:17:32;58.80;;;46.13;;
13368;SDS011;6753;52.520;13.450;2022-09-01T00:17:43;59.53;;;46.47;;
13368;SDS011;6753;52.520;13.450;2022-09-01T00:17:54;59.20;;;46.08;;
13368;SDS011;6753;52.520;13.450;2022-09-01T00:18:04;60.00;;;46.78;;
13368;SDS011;6753;52.520;13.450;2022-09-01T00:18:15;61.40;;;47.53;;
13368;SDS011;6753;52.520;13.450;2022-09-01T00:18:26;63.75;;;48.90;;
13368;SDS011;6753;52.520;13.450;2022-09-01T00:18:37;65.20;;;49.47;;
13368;SDS011;6753;52.520;13.450;2022-09-01T00:18:52;67.30;;;50.55;;
13368;SDS011;6753;52.520;13.450;2022-09-01T00:19:04;67.88;;;49.50;;
13368;SDS011;6753;52.520;13.450;2022-09-01T00:19:15;67.43;;;49.38;;
13368;SDS011;6753;52.520;13.450;2022-09-01T00:19:26;67.93;;;49.60;;
13368;SDS011;6753;52.520;13.450;2022-09-01T00:19:38;68.03;;;50.10;;
13368;SDS011;6753;52.520;13.450;2022-09-01T00:19:49;66.05;;;48.88;;
13368;SDS011;6753;52.520;13.450;2022-09-01T00:20:00;67.10;;;50.40;;
13368;SDS011;6753;52.520;13.450;2022-09-01T00:20:10;65.75;;;49.35;;
13368;SDS011;6753;52.520;13.450;2022-09-01T00:20:23;63.20;;;47.35;;
13368;SDS011;6753;52.520;13.450;2022-09-01T00:20:33;59.80;;;45.47;;
13368;SDS011;6753;52.520;13.450;2022-09-01T00:20:44;58.25;;;44.63;;
13368;SDS011;6753;52.520;13.450;2022-09-01T00:20:55;57.42;;;44.38;;
13368;SDS011;6753;52.520;13.450;2022-09-01T00:21:08;58.05;;;44.58;;
13368;SDS011;6753;52.520;13.450;2022-09-01T00:21:20;60.13;;;46.58;;
13368;SDS011;6753;52.520;13.450;2022-09-01T00:21:36;58.78;;;45.55;;
13368;SDS011;6753;52.520;13.450;2022-09-01T00:21:48;58.33;;;45.03;;
13368;SDS011;6753;52.520;13.450;2022-09-01T00:22:03;56.08;;;43.50;;
13368;SDS011;6753;52.520;13.450;2022-09-01T00:22:15;53.35;;;40.95;;
13368;SDS011;6753;52.520;13.450;2022-09-01T00:22:26;53.30;;;41.33;;
13368;SDS011;6753;52.520;13.450;2022-09-01T00:22:41;57.03;;;43.55;;
13368;SDS011;6753;52.520;13.450;2022-09-01T00:22:51;62.00;;;46.30;;
13368;SDS011;6753;52.520;13.450;2022-09-01T00:23:02;67.88;;;50.17;;
13368;SDS011;6753;52.520;13.450;2022-09-01T00:23:13;72.83;;;54.00;;
13368;SDS011;6753;52.520;13.450;2022-09-01T00:23:25;74.15;;;54.72;;
13368;SDS011;6753;52.520;13.450;2022-09-01T00:23:36;75.40;;;54.70;;
13368;SDS011;6753;52.520;13.450;2022-09-01T00:23:47;73.40;;;53.65;;
13368;SDS011;6753;52.520;13.450;2022-09-01T00:23:58;68.35;;;51.05;;
13368;SDS011;6753;52.520;13.450;2022-09-01T00:24:10;63.03;;;47.70;;
13368;SDS011;6753;52.520;13.450;2022-09-01T00:24:23;63.03;;;47.00;;
13368;SDS011;6753;52.520;13.450;2022-09-01T00:24:41;62.88;;;47.47;;
13368;SDS011;6753;52.520;13.450;2022-09-01T00:24:54;62.78;;;47.55;;
13368;SDS011;6753;52.520;13.450;2022-09-01T00:25:07;62.25;;;47.00;;
13368;SDS011;6753;52.520;13.450;2022-09-01T00:25:18;61.83;;;46.80;;
13368;SDS011;6753;52.520;13.450;2022-09-01T00:25:29;61.05;;;46.10;;
13368;SDS011;6753;52.520;13.450;2022-09-01T00:25:40;61.90;;;46.85;;
13368;SDS011;6753;52.520;13.450;2022-09-01T00:25:51;62.00;;;47.03;;
13368;SDS011;6753;52.520;13.450;2022-09-01T00:26:02;62.47;;;47.10;;
13368;SDS011;6753;52.520;13.450;2022-09-01T00:26:13;66.00;;;49.58;;
13368;SDS011;6753;52.520;13.450;2022-09-01T00:26:24;66.82;;;50.63;;
13368;SDS011;6753;52.520;13.450;2022-09-01T00:26:36;67.97;;;50.88;;
13368;SDS011;6753;52.520;13.450;2022-09-01T00:26:47;68.35;;;50.92;;
13368;SDS011;6753;52.520;13.450;2022-09-01T00:27:01;68.70;;;51.00;;
13368;SDS011;6753;52.520;13.450;2022-09-01T00:27:12;64.78;;;48.47;;
13368;SDS011;6753;52.520;13.450;2022-09-01T00:27:22;61.22;;;46.22;;
13368;SDS011;6753;52.520;13.450;2022-09-01T00:27:33;59.92;;;45.95;;
13368;SDS011;6753;52.520;13.450;2022-09-01T00:27:45;59.42;;;46.17;;
13368;SDS011;6753;52.520;13.450;2022-09-01T00:27:58;59.45;;;45.95;;
13368;SDS011;6753;52.520;13.450;2022-09-01T00:28:13;60.40;;;46.53;;
13368;SDS011;6753;52.520;13.450;2022-09-01T00:28:24;60.97;;;46.53;;
13368;SDS011;6753;52.520;13.450;2022-09-01T00:28:36;58.90;;;44.92;;
13368;SDS011;6753;52.520;13.450;2022-09-01T00:28:47;57.53;;;43.55;;
13368;SDS011;6753;52.520;13.450;2022-09-01T00:28:59;56.63;;;43.08;;
13368;SDS011;6753;52.520;13.450;2022-09-01T00:29:13;56.28;;;42.92;;
13368;SDS011;6753;52.520;13.450;2022-09-01T00:29:27;57.13;;;43.58;;
13368;SDS011;6753;52.520;13.450;2022-09-01T00:29:38;58.72;;;44.45;;
13368;SDS011;6753;52.520;13.450;2022-09-01T00:29:49;61.83;;;47.33;;
13368;SDS011;6753;52.520;13.450;2022-09-01T00:30:03;62.42;;;47.63;;
13368;SDS011;6753;52.520;13.450;2022-09-01T00:30:18;62.47;;;47.78;;
13368;SDS011;6753;52.520;13.450;2022-09-01T00:30:29;61.50;;;47.30;;
13368;SDS011;6753;52.520;13.450;2022-09-01T00:30:40;60.97;;;46.97;;
13368;SDS011;6753;52.520;13.450;2022-09-01T00:30:53;61.97;;;47.45;;
13368;SDS011;6753;52.520;13.450;2022-09-01T00:31:05;64.53;;;49.67;;
13368;SDS011;6753;52.520;13.450;2022-09-01T00:31:17;65.57;;;50.05;;
13368;SDS011;6753;52.520;13.450;2022-09-01T00:31:33;69.00;;;52.33;;
13368;SDS011;6753;52.520;13.450;2022-09-01T00:31:47;68.15;;;51.75;;
13368;SDS011;6753;52.520;13.450;2022-09-01T00:31:59;64.18;;;48.83;;
13368;SDS011;6753;52.520;13.450;2022-09-01T00:32:10;63.30;;;48.28;;
13368;SDS011;6753;52.520;13.450;2022-09-01T00:32:20;61.83;;;47.60;;
13368;SDS011;6753;52.520;13.450;2022-09-01T00:32:46;59.13;;;46.33;;
13368;SDS011;6753;52.520;13.450;2022-09-01T00:32:58;60.55;;;46.80;;
13368;SDS011;6753;52.520;13.450;2022-09-01T00:33:09;62.47;;;47.95;;
13368;SDS011;6753;52.520;13.450;2022-09-01T00:33:19;63.95;;;49.00;;
13368;SDS011;6753;52.520;13.450;2022-09-01T00:33:30;64.10;;;49.40;;
13368;SDS011;6753;52.520;13.450;2022-09-01T00:33:41;65.93;;;50.22;;
13368;SDS011;6753;52.520;13.450;2022-09-01T00:33:55;67.72;;;51.33;;
13368;SDS011;6753;52.520;13.450;2022-09-01T00:34:06;68.97;;;52.90;;
13368;SDS011;6753;52.520;13.450;2022-09-01T00:34:18;69.20;;;52.90;;
13368;SDS011;6753;52.520;13.450;2022-09-01T00:34:30;68.82;;;52.53;;
13368;SDS011;6753;52.520;13.450;2022-09-01T00:34:43;67.10;;;51.60;;
13368;SDS011;6753;52.520;13.450;2022-09-01T00:34:55;64.50;;;49.30;;
13368;SDS011;6753;52.520;13.450;2022-09-01T00:35:06;62.03;;;47.58;;
13368;SDS011;6753;52.520;13.450;2022-09-01T00:35:18;61.88;;;47.00;;
13368;SDS011;6753;52.520;13.450;2022-09-01T00:35:29;61.28;;;46.80;;
13368;SDS011;6753;52.520;13.450;2022-09-01T00:35:39;61.55;;;46.70;;
13368;SDS011;6753;52.520;13.450;2022-09-01T00:35:51;60.30;;;46.38;;
13368;SDS011;6753;52.520;13.450;2022-09-01T00:36:02;60.63;;;46.40;;
13368;SDS011;6753;52.520;13.450;2022-09-01T00:36:14;60.90;;;46.50;;
13368;SDS011;6753;52.520;13.450;2022-09-01T00:36:25;61.53;;;46.92;;
13368;SDS011;6753;52.520;13.450;2022-09-01T00:36:36;60.78;;;46.65;;
13368;SDS011;6753;52.520;13.450;2022-09-01T00:36:47;60.78;;;46.80;;
13368;SDS011;6753;52.520;13.450;2022-09-01T00:36:58;60.00;;;46.50;;
13368;SDS011;6753;52.520;13.450;2022-09-01T00:37:08;59.50;;;46.10;;
13368;SDS011;6753;52.520;13.450;2022-09-01T00:37:19;59.20;;;46.08;;
13368;SDS011;6753;52.520;13.450;2022-09-01T00:37:31;58.67;;;45.85;;
13368;SDS011;6753;52.520;13.450;2022-09-01T00:37:42;59.80;;;46.20;;
13368;SDS011;6753;52.520;13.450;2022-09-01T00:37:53;60.88;;;46.40;;
13368;SDS011;6753;52.520;13.450;2022-09-01T00:38:04;62.45;;;46.95;;
13368;SDS011;6753;52.520;13.450;2022-09-01T00:38:15;62.80;;;47.23;;
13368;SDS011;6753;52.520;13.450;2022-09-01T00:38:25;62.92;;;47.13;;
13368;SDS011;6753;52.520;13.450;2022-09-01T00:38:37;62.58;;;47.33;;
13368;SDS011;6753;52.520;13.450;2022-09-01T00:38:48;62.47;;;47.63;;
13368;SDS011;6753;52.520;13.450;2022-09-01T00:39:00;61.65;;;47.67;;
13368;SDS011;6753;52.520;13.450;2022-09-01T00:39:14;61.97;;;47.30;;
13368;SDS011;6753;52.520;13.450;2022-09-01T00:39:25;63.13;;;47.70;;
13368;SDS011;6753;52.520;13.450;2022-09-01T00:39:36;63.35;;;47.53;;
13368;SDS011;6753;52.520;13.450;2022-09-01T00:39:47;63.53;;;47.15;;
13368;SDS011;6753;52.520;13.450;2022-09-01T00:39:58;64.05;;;47.17;;
13368;SDS011;6753;52.520;13.450;2022-09-01T00:40:10;64.80;;;47.65;;
13368;SDS011;6753;52.520;13.450;2022-09-01T00:40:22;63.20;;;47.85;;
13368;SDS011;6753;52.520;13.450;2022-09-01T00:40:33;63.38;;;48.00;;
13368;SDS011;6753;52.520;13.450;2022-09-01T00:40:47;62.83;;;48.10;;
13368;SDS011;6753;52.520;13.450;2022-09-01T00:40:59;61.78;;;47.88;;
13368;SDS011;6753;52.520;13.450;2022-09-01T00:41:10;61.85;;;47.33;;
13368;SDS011;6753;52.520;13.450;2022-09-01T00:41:22;61.83;;;46.95;;
13368;SDS011;6753;52.520;13.450;2022-09-01T00:41:39;62.60;;;47.42;;
13368;SDS011;6753;52.520;13.450;2022-09-01T00:41:51;63.47;;;47.60;;
13368;SDS011;6753;52.520;13.450;2022-09-01T00:42:05;63.58;;;48.00;;
13368;SDS011;6753;52.520;13.450;2022-09-01T00:42:16;63.78;;;48.60;;
13368;SDS011;6753;52.520;13.450;2022-09-01T00:42:27;62.80;;;48.30;;
13368;SDS011;6753;52.520;13.450;2022-09-01T00:42:41;62.47;;;48.35;;
13368;SDS011;6753;52.520;13.450;2022-09-01T00:42:53;61.90;;;48.47;;
13368;SDS011;6753;52.520;13.450;2022-09-01T00:43:10;60.80;;;48.22;;
13368;SDS011;6753;52.520;13.450;2022-09-01T00:43:37;61.58;;;48.35;;
13368;SDS011;6753;52.520;13.450;2022-09-01T00:43:50;62.13;;;48.47;;
13368;SDS011;6753;52.520;13.450;2022-09-01T00:44:03;61.63;;;47.85;;
13368;SDS011;6753;52.520;13.450;2022-09-01T00:44:16;61.83;;;48.25;;
13368;SDS011;6753;52.520;13.450;2022-09-01T00:44:32;60.45;;;47.50;;
13368;SDS011;6753;52.520;13.450;2022-09-01T00:44:45;59.75;;;47.15;;
13368;SDS011;6753;52.520;13.450;2022-09-01T00:44:56;59.67;;;47.13;;
13368;SDS011;6753;52.520;13.450;2022-09-01T00:45:07;60.33;;;47.20;;
13368;SDS011;6753;52.520;13.450;2022-09-01T00:45:23;59.72;;;46.88;;
13368;SDS011;6753;52.520;13.450;2022-09-01T00:45:34;61.13;;;47.95;;
13368;SDS011;6753;52.520;13.450;2022-09-01T00:45:44;63.15;;;48.85;;
13368;SDS011;6753;52.520;13.450;2022-09-01T00:45:57;63.90;;;49.33;;
13368;SDS011;6753;52.520;13.450;2022-09-01T00:46:09;65.40;;;50.33;;
13368;SDS011;6753;52.520;13.450;2022-09-01T00:46:23;66.55;;;51.03;;
13368;SDS011;6753;52.520;13.450;2022-09-01T00:46:37;66.88;;;51.28;;
13368;SDS011;6753;52.520;13.450;2022-09-01T00:46:49;65.45;;;50.83;;
13368;SDS011;6753;52.520;13.450;2022-09-01T00:47:02;64.78;;;50.40;;
13368;SDS011;6753;52.520;13.450;2022-09-01T00:47:15;64.95;;;50.88;;
13368;SDS011;6753;52.520;13.450;2022-09-01T00:47:26;65.30;;;51.20;;
13368;SDS011;6753;52.520;13.450;2022-09-01T00:47:37;65.68;;;51.42;;
13368;SDS011;6753;52.520;13.450;2022-09-01T00:47:48;67.15;;;52.15;;
13368;SDS011;6753;52.520;13.450;2022-09-01T00:47:59;68.40;;;52.90;;
13368;SDS011;6753;52.520;13.450;2022-09-01T00:48:10;68.32;;;52.78;;
13368;SDS011;6753;52.520;13.450;2022-09-01T00:48:23;66.65;;;51.72;;
13368;SDS011;6753;52.520;13.450;2022-09-01T00:48:34;66.13;;;51.08;;
13368;SDS011;6753;52.520;13.450;2022-09-01T00:48:45;66.18;;;51.05;;
13368;SDS011;6753;52.520;13.450;2022-09-01T00:49:01;66.10;;;50.72;;
13368;SDS011;6753;52.520;13.450;2022-09-01T00:49:16;66.75;;;50.95;;
13368;SDS011;6753;52.520;13.450;2022-09-01T00:49:30;68.50;;;51.90;;
13368;SDS011;6753;52.520;13.450;2022-09-01T00:49:45;68.35;;;51.85;;
13368;SDS011;6753;52.520;13.450;2022-09-01T00:49:58;68.50;;;52.35;;
13368;SDS011;6753;52.520;13.450;2022-09-01T00:50:09;68.32;;;52.72;;
13368;SDS011;6753;52.520;13.450;2022-09-01T00:50:22;67.10;;;51.60;;
13368;SDS011;6753;52.520;13.450;2022-09-01T00:50:34;66.55;;;51.50;;
13368;SDS011;6753;52.520;13.450;2022-09-01T00:50:46;66.75;;;51.47;;
13368;SDS011;6753;52.520;13.450;2022-09-01T00:50:57;65.70;;;51.10;;
13368;SDS011;6753;52.520;13.450;2022-09-01T00:51:09;65.53;;;50.88;;
13368;SDS011;6753;52.520;13.450;2022-09-01T00:51:21;66.35;;;51.28;;
13368;SDS011;6753;52.520;13.450;2022-09-01T00:51:33;66.53;;;51.45;;
13368;SDS011;6753;52.520;13.450;2022-09-01T00:51:47;65.95;;;51.40;;
13368;SDS011;6753;52.520;13.450;2022-09-01T00:52:03;66.00;;;50.90;;
13368;SDS011;6753;52.520;13.450;2022-09-01T00:52:18;64.55;;;50.22;;
13368;SDS011;6753;52.520;13.450;2022-09-01T00:52:34;63.80;;;49.97;;
13368;SDS011;6753;52.520;13.450;2022-09-01T00:52:50;65.03;;;50.75;;
13368;SDS011;6753;52.520;13.450;2022-09-01T00:53:03;67.25;;;52.25;;
13368;SDS011;6753;52.520;13.450;2022-09-01T00:53:16;67.85;;;52.47;;
13368;SDS011;6753;52.520;13.450;2022-09-01T00:53:28;67.47;;;52.13;;
13368;SDS011;6753;52.520;13.450;2022-09-01T00:53:42;67.72;;;51.88;;
13368;SDS011;6753;52.520;13.450;2022-09-01T00:53:55;66.82;;;51.22;;
13368;SDS011;6753;52.520;13.450;2022-09-01T00:54:07;65.35;;;50.28;;
13368;SDS011;6753;52.520;13.450;2022-09-01T00:54:21;65.25;;;50.03;;
13368;SDS011;6753;52.520;13.450;2022-09-01T00:54:41;66.20;;;50.45;;
13368;SDS011;6753;52.520;13.450;2022-09-01T00:54:55;65.32;;;50.40;;
13368;SDS011;6753;52.520;13.450;2022-09-01T00:55:12;65.80;;;50.70;;
13368;SDS011;6753;52.520;13.450;2022-09-01T00:55:28;66.07;;;50.70;;
13368;SDS011;6753;52.520;13.450;2022-09-01T00:55:41;66.03;;;50.83;;
13368;SDS011;6753;52.520;13.450;2022-09-01T00:55:55;65.90;;;51.00;;
13368;SDS011;6753;52.520;13.450;2022-09-01T00:56:05;65.32;;;50.70;;
13368;SDS011;6753;52.520;13.450;2022-09-01T00:56:17;66.55;;;51.72;;
13368;SDS011;6753;52.520;13.450;2022-09-01T00:56:29;65.30;;;51.17;;
13368;SDS011;6753;52.520;13.450;2022-09-01T00:56:43;64.40;;;50.17;;
13368;SDS011;6753;52.520;13.450;2022-09-01T00:56:55;64.30;;;50.15;;
13368;SDS011;6753;52.520;13.450;2022-09-01T00:57:07;64.18;;;50.08;;
13368;SDS011;6753;52.520;13.450;2022-09-01T00:57:19;63.63;;;49.88;;
13368;SDS011;6753;52.520;13.450;2022-09-01T00:57:31;64.68;;;50.53;;
13368;SDS011;6753;52.520;13.450;2022-09-01T00:57:42;64.97;;;50.75;;
13368;SDS011;6753;52.520;13.450;2022-09-01T00:57:54;65.55;;;50.67;;
13368;SDS011;6753;52.520;13.450;2022-09-01T00:58:06;65.13;;;50.47;;
13368;SDS011;6753;52.520;13.450;2022-09-01T00:58:18;65.75;;;49.97;;
13368;SDS011;6753;52.520;13.450;2022-09-01T00:58:29;65.90;;;49.75;;
13368;SDS011;6753;52.520;13.450;2022-09-01T00:58:41;67.05;;;49.95;;
13368;SDS011;6753;52.520;13.450;2022-09-01T00:58:52;66.95;;;50.40;;
13368;SDS011;6753;52.520;13.450;2022-09-01T00:59:04;66.93;;;50.03;;
13368;SDS011;6753;52.520;13.450;2022-09-01T00:59:16;65.07;;;49.72;;
13368;SDS011;6753;52.520;13.450;2022-09-01T00:59:29;64.57;;;49.45;;
13368;SDS011;6753;52.520;13.450;2022-09-01T00:59:42;63.67;;;49.45;;
13368;SDS011;6753;52.520;13.450;2022-09-01T00:59:58;63.33;;;48.95;;
13368;SDS011;6753;52.520;13.450;2022-09-01T01:00:15;64.95;;;49.90;;
13368;SDS011;6753;52.520;13.450;2022-09-01T01:00:28;65.25;;;49.83;;
13368;SDS011;6753;52.520;13.450;2022-09-01T01:00:40;66.32;;;49.85;;
13368;SDS011;6753;52.520;13.450;2022-09-01T01:00:53;66.30;;;50.15;;
13368;SDS011;6753;52.520;13.450;2022-09-01T01:01:07;66.18;;;49.65;;
13368;SDS011;6753;52.520;13.450;2022-09-01T01:01:19;64.75;;;49.40;;
13368;SDS011;6753;52.520;13.450;2022-09-01T01:01:30;64.75;;;50.00;;
13368;SDS011;6753;52.520;13.450;2022-09-01T01:01:44;63.95;;;49.38;;
13368;SDS011;6753;52.520;13.450;2022-09-01T01:01:55;64.23;;;49.80;;
13368;SDS011;6753;52.520;13.450;2022-09-01T01:02:07;63.78;;;49.90;;
13368;SDS011;6753;52.520;13.450;2022-09-01T01:02:18;64.97;;;50.13;;
13368;SDS011;6753;52.520;13.450;2022-09-01T01:02:29;64.65;;;49.80;;
13368;SDS011;6753;52.520;13.450;2022-09-01T01:02:40;64.82;;;49.97;;
13368;SDS011;6753;52.520;13.450;2022-09-01T01:02:51;64.45;;;49.55;;
13368;SDS011;6753;52.520;13.450;2022-09-01T01:03:07;64.22;;;49.17;;
13368;SDS011;6753;52.520;13.450;2022-09-01T01:03:20;62.85;;;48.65;;
13368;SDS011;6753;52.520;13.450;2022-09-01T01:03:33;62.95;;;48.55;;
13368;SDS011;6753;52.520;13.450;2022-09-01T01:03:44;62.42;;;48.38;;
13368;SDS011;6753;52.520;13.450;2022-09-01T01:03:56;62.58;;;48.60;;
13368;SDS011;6753;52.520;13.450;2022-09-01T01:04:11;63.25;;;49.20;;
13368;SDS011;6753;52.520;13.450;2022-09-01T01:04:24;64.15;;;49.53;;
13368;SDS011;6753;52.520;13.450;2022-09-01T01:04:36;64.80;;;49.78;;
13368;SDS011;6753;52.520;13.450;2022-09-01T01:04:49;64.40;;;49.50;;
13368;SDS011;6753;52.520;13.450;2022-09-01T01:05:01;64.05;;;49.20;;
13368;SDS011;6753;52.520;13.450;2022-09-01T01:05:12;65.50;;;49.42;;
13368;SDS011;6753;52.520;13.450;2022-09-01T01:05:25;65.82;;;49.97;;
13368;SDS011;6753;52.520;13.450;2022-09-01T01:05:43;64.20;;;49.35;;
13368;SDS011;6753;52.520;13.450;2022-09-01T01:06:04;65.57;;;50.15;;
13368;SDS011;6753;52.520;13.450;2022-09-01T01:06:18;64.63;;;49.65;;
13368;SDS011;6753;52.520;13.450;2022-09-01T01:06:35;63.20;;;49.10;;
13368;SDS011;6753;52.520;13.450;2022-09-01T01:06:47;62.90;;;49.17;;
13368;SDS011;6753;52.520;13.450;2022-09-01T01:07:07;62.28;;;48.42;;
13368;SDS011;6753;52.520;13.450;2022-09-01T01:07:21;62.05;;;48.55;;
13368;SDS011;6753;52.520;13.450;2022-09-01T01:07:33;62.10;;;48.42;;
13368;SDS011;6753;52.520;13.450;2022-09-01T01:07:51;60.67;;;47.65;;
13368;SDS011;6753;52.520;13.450;2022-09-01T01:08:03;60.65;;;47.75;;
13368;SDS011;6753;52.520;13.450;2022-09-01T01:08:17;60.50;;;47.38;;
13368;SDS011;6753;52.520;13.450;2022-09-01T01:08:37;62.40;;;48.35;;
13368;SDS011;6753;52.520;13.450;2022-09-01T01:08:50;63.15;;;48.65;;
13368;SDS011;6753;52.520;13.450;2022-09-01T01:09:06;63.13;;;49.05;;
13368;SDS011;6753;52.520;13.450;2022-09-01T01:09:17;62.60;;;49.10;;
13368;SDS011;6753;52.520;13.450;2022-09-01T01:09:33;61.90;;;48.95;;
13368;SDS011;6753;52.520;13.450;2022-09-01T01:09:47;60.88;;;48.65;;
13368;SDS011;6753;52.520;13.450;2022-09-01T01:09:59;61.28;;;48.40;;
13368;SDS011;6753;52.520;13.450;2022-09-01T01:10:11;61.57;;;48.00;;
13368;SDS011;6753;52.520;13.450;2022-09-01T01:10:24;62.17;;;48.22;;
13368;SDS011;6753;52.520;13.450;2022-09-01T01:10:45;62.28;;;48.13;;
13368;SDS011;6753;52.520;13.450;2022-09-01T01:10:57;62.50;;;48.80;;
13368;SDS011;6753;52.520;13.450;2022-09-01T01:11:12;62.10;;;48.88;;
13368;SDS011;6753;52.520;13.450;2022-09-01T01:11:27;61.67;;;48.38;;
13368;SDS011;6753;52.520;13.450;2022-09-01T01:11:43;60.95;;;48.25;;
13368;SDS011;6753;52.520;13.450;2022-09-01T01:11:56;59.97;;;47.25;;
13368;SDS011;6753;52.520;13.450;2022-09-01T01:12:11;60.15;;;47.17;;
13368;SDS011;6753;52.520;13.450;2022-09-01T01:12:27;60.20;;;47.40;;
13368;SDS011;6753;52.520;13.450;2022-09-01T01:12:39;60.35;;;47.20;;
13368;SDS011;6753;52.520;13.450;2022-09-01T01:12:52;60.78;;;47.65;;
13368;SDS011;6753;52.520;13.450;2022-09-01T01:13:05;61.13;;;47.92;;
13368;SDS011;6753;52.520;13.450;2022-09-01T01:13:17;60.72;;;48.00;;
13368;SDS011;6753;52.520;13.450;2022-09-01T01:13:29;61.20;;;48.45;;
13368;SDS011;6753;52.520;13.450;2022-09-01T01:13:45;61.40;;;48.67;;